CheckWX is a tool to help pilots better visualize weather data.  It is not intended as a substitute for an official pre-flight weather briefing.

19:17:32 UTC

KAFJ METAR
Washington County Airport
Washington, Pennsylvania, USA
Current

22 mins ago

KAFJ 261856Z AUTO 28006KT 10SM CLR 25/18 A3005 RMK AO2 SLP169 T02500183
Observed
May-26 @ 18:56 UTC
Wind
  • 280° at 6 KTS
Visibility
10 SM
Flight Rules
VFR
Cloud Levels
  • Clear skies
Temperature
25°C / 77°F
Dewpoint
18°C / 64°F
Humidity
65%
Altimeter
30.05" Hg
Pressure
1017.62 hPa
Previous

1 hour ago

KAFJ 261756Z AUTO VRB04KT 10SM BKN090 23/18 A3007 RMK AO2 RAE38 SLP177 P0000 60005 T02280183 10239 20200 58004
Observed
May-26 @ 17:56 UTC
Wind
  • Variable at 4 KTS
Visibility
10 SM
Flight Rules
VFR
Cloud Levels
  • Broken at 9,000' AGL
Temperature
23°C / 73°F
Dewpoint
18°C / 64°F
Humidity
74%
Altimeter
30.07" Hg
Pressure
1018.32 hPa
Current Rain
0.01"
Previous

2 hours ago

KAFJ 261656Z AUTO 26007KT 10SM -RA FEW060 BKN110 23/18 A3010 RMK AO2 RAB54 SLP185 P0000 T02280178
Observed
May-26 @ 16:56 UTC
Wind
  • 260° at 7 KTS
Visibility
10 SM
Flight Rules
VFR
Conditions
Light Rain
Cloud Levels
  • Few at 6,000' AGL
  • Broken at 11,000' AGL
Temperature
23°C / 73°F
Dewpoint
18°C / 64°F
Humidity
74%
Altimeter
30.1" Hg
Pressure
1019.32 hPa
Current Rain
0.01"